Decoded Metar for KAUM (AUSTIN MUNI in MN, USA) (IATA:AUM) | Meteo·Mobile Aviation Weather
aviador You're here:

KAUM Decoded Metar

AUSTIN MUNI in MN, USA
Report Time2018-12-18 17:16:00
UTC Time2018-12-18 17:30:16
Flight Rules vfr VFR
Wind190° at 09 kt
W.Decomp.*RWY 17: 8.6 kt HW 2.6 kt RCW
W.Rank190° ranks 8
Current wind is below 190° avg. (9.0)
Visibility9999 m
Phenomena:N/A
Clouds:N/A
Expected CloudBase > 2,000 ft AGL from Temp-Dew spread
CeilingNone
Temp03°C (ISA -10)
Dew Point-2°C (70% RH)
AAT-2.5°C
QNH1014 hPa
Density Alt118 ft
Elevation1,230 ft
Report Wrong Elevation
Raw Report
KAUM 181716Z AUTO 19009KT 10SM CLR 03/M02 A2995 RMK AO2=

Extra information for KAUM:More info

Metar Taf Metar & Taf Last 4 Metars F.Rules Stats Wind Profile Meteogram Temp Stats Airport Information Weather charts Add Link Nearby VenuesMetar ALERT Operation Metar Decoded Social comments

AIRNAV info for KAUM